sensor_id;sensor_type;location;lat;lon;timestamp;P1;durP1;ratioP1;P2;durP2;ratioP2
25569;SDS011;17955;45.542;9.238;2022-12-18T00:01:13;23.88;;;14.90;;
25569;SDS011;17955;45.542;9.238;2022-12-18T00:03:41;24.85;;;15.95;;
25569;SDS011;17955;45.542;9.238;2022-12-18T00:06:08;23.05;;;14.88;;
25569;SDS011;17955;45.542;9.238;2022-12-18T00:08:36;25.15;;;15.68;;
25569;SDS011;17955;45.542;9.238;2022-12-18T00:11:05;26.52;;;15.82;;
25569;SDS011;17955;45.542;9.238;2022-12-18T00:13:33;24.88;;;14.82;;
25569;SDS011;17955;45.542;9.238;2022-12-18T00:16:01;23.38;;;14.40;;
25569;SDS011;17955;45.542;9.238;2022-12-18T00:18:28;24.55;;;14.57;;
25569;SDS011;17955;45.542;9.238;2022-12-18T00:20:58;26.50;;;15.02;;
25569;SDS011;17955;45.542;9.238;2022-12-18T00:23:25;24.55;;;15.25;;
25569;SDS011;17955;45.542;9.238;2022-12-18T00:25:52;23.45;;;15.43;;
25569;SDS011;17955;45.542;9.238;2022-12-18T00:28:21;27.15;;;16.25;;
25569;SDS011;17955;45.542;9.238;2022-12-18T00:30:48;23.10;;;14.75;;
25569;SDS011;17955;45.542;9.238;2022-12-18T00:33:16;24.75;;;15.65;;
25569;SDS011;17955;45.542;9.238;2022-12-18T00:35:43;23.85;;;14.50;;
25569;SDS011;17955;45.542;9.238;2022-12-18T00:38:11;27.95;;;16.42;;
25569;SDS011;17955;45.542;9.238;2022-12-18T00:40:38;25.42;;;14.90;;
25569;SDS011;17955;45.542;9.238;2022-12-18T00:43:05;23.25;;;14.10;;
25569;SDS011;17955;45.542;9.238;2022-12-18T00:45:33;25.80;;;14.82;;
25569;SDS011;17955;45.542;9.238;2022-12-18T00:48:00;26.80;;;14.60;;
25569;SDS011;17955;45.542;9.238;2022-12-18T00:50:27;21.85;;;13.38;;
25569;SDS011;17955;45.542;9.238;2022-12-18T00:52:55;23.27;;;15.77;;
25569;SDS011;17955;45.542;9.238;2022-12-18T00:55:22;22.08;;;13.45;;
25569;SDS011;17955;45.542;9.238;2022-12-18T00:57:50;27.60;;;15.73;;
25569;SDS011;17955;45.542;9.238;2022-12-18T01:00:18;22.48;;;14.27;;
25569;SDS011;17955;45.542;9.238;2022-12-18T01:02:47;24.83;;;15.38;;
25569;SDS011;17955;45.542;9.238;2022-12-18T01:05:15;26.42;;;15.38;;
25569;SDS011;17955;45.542;9.238;2022-12-18T01:07:42;25.42;;;15.07;;
25569;SDS011;17955;45.542;9.238;2022-12-18T01:10:10;25.05;;;14.82;;
25569;SDS011;17955;45.542;9.238;2022-12-18T01:12:38;22.48;;;13.10;;
25569;SDS011;17955;45.542;9.238;2022-12-18T01:15:06;20.70;;;14.18;;
25569;SDS011;17955;45.542;9.238;2022-12-18T01:17:36;29.63;;;15.98;;
25569;SDS011;17955;45.542;9.238;2022-12-18T01:20:05;22.98;;;14.70;;
25569;SDS011;17955;45.542;9.238;2022-12-18T01:22:35;21.50;;;14.55;;
25569;SDS011;17955;45.542;9.238;2022-12-18T01:25:03;23.95;;;14.98;;
25569;SDS011;17955;45.542;9.238;2022-12-18T01:27:31;23.60;;;14.77;;
25569;SDS011;17955;45.542;9.238;2022-12-18T01:30:01;23.15;;;14.63;;
25569;SDS011;17955;45.542;9.238;2022-12-18T01:32:29;27.02;;;15.02;;
25569;SDS011;17955;45.542;9.238;2022-12-18T01:34:56;24.77;;;14.57;;
25569;SDS011;17955;45.542;9.238;2022-12-18T01:37:27;24.60;;;14.65;;
25569;SDS011;17955;45.542;9.238;2022-12-18T01:39:54;25.35;;;14.30;;
25569;SDS011;17955;45.542;9.238;2022-12-18T01:42:21;24.80;;;15.07;;
25569;SDS011;17955;45.542;9.238;2022-12-18T01:44:53;25.83;;;14.70;;
25569;SDS011;17955;45.542;9.238;2022-12-18T01:47:22;26.15;;;13.65;;
25569;SDS011;17955;45.542;9.238;2022-12-18T01:49:50;21.30;;;13.25;;
25569;SDS011;17955;45.542;9.238;2022-12-18T01:52:18;25.55;;;15.27;;
25569;SDS011;17955;45.542;9.238;2022-12-18T01:54:47;22.42;;;13.45;;
25569;SDS011;17955;45.542;9.238;2022-12-18T01:57:15;21.30;;;13.95;;
25569;SDS011;17955;45.542;9.238;2022-12-18T01:59:43;25.90;;;15.18;;
25569;SDS011;17955;45.542;9.238;2022-12-18T02:02:12;22.95;;;13.82;;
25569;SDS011;17955;45.542;9.238;2022-12-18T02:04:42;22.85;;;14.88;;
25569;SDS011;17955;45.542;9.238;2022-12-18T02:07:10;23.20;;;14.02;;
25569;SDS011;17955;45.542;9.238;2022-12-18T02:09:43;24.73;;;15.90;;
25569;SDS011;17955;45.542;9.238;2022-12-18T02:12:16;27.48;;;17.08;;
25569;SDS011;17955;45.542;9.238;2022-12-18T02:14:46;26.88;;;17.50;;
25569;SDS011;17955;45.542;9.238;2022-12-18T02:17:17;29.42;;;16.80;;
25569;SDS011;17955;45.542;9.238;2022-12-18T02:19:47;27.55;;;17.15;;
25569;SDS011;17955;45.542;9.238;2022-12-18T02:22:22;29.08;;;16.40;;
25569;SDS011;17955;45.542;9.238;2022-12-18T02:24:54;25.85;;;15.88;;
25569;SDS011;17955;45.542;9.238;2022-12-18T02:27:28;24.15;;;15.68;;
25569;SDS011;17955;45.542;9.238;2022-12-18T02:29:58;27.92;;;15.93;;
25569;SDS011;17955;45.542;9.238;2022-12-18T02:32:28;26.27;;;15.07;;
25569;SDS011;17955;45.542;9.238;2022-12-18T02:34:57;23.35;;;14.85;;
25569;SDS011;17955;45.542;9.238;2022-12-18T02:37:27;26.58;;;14.65;;
25569;SDS011;17955;45.542;9.238;2022-12-18T02:39:58;29.80;;;15.88;;
25569;SDS011;17955;45.542;9.238;2022-12-18T02:42:26;23.45;;;13.07;;
25569;SDS011;17955;45.542;9.238;2022-12-18T02:44:56;25.63;;;14.63;;
25569;SDS011;17955;45.542;9.238;2022-12-18T02:47:25;24.35;;;15.43;;
25569;SDS011;17955;45.542;9.238;2022-12-18T02:49:57;27.75;;;15.45;;
25569;SDS011;17955;45.542;9.238;2022-12-18T02:52:31;23.23;;;14.15;;
25569;SDS011;17955;45.542;9.238;2022-12-18T02:55:08;28.50;;;16.02;;
25569;SDS011;17955;45.542;9.238;2022-12-18T02:57:44;30.33;;;16.63;;
25569;SDS011;17955;45.542;9.238;2022-12-18T03:00:17;30.60;;;16.80;;
25569;SDS011;17955;45.542;9.238;2022-12-18T03:02:46;32.75;;;17.42;;
25569;SDS011;17955;45.542;9.238;2022-12-18T03:05:16;31.50;;;16.35;;
25569;SDS011;17955;45.542;9.238;2022-12-18T03:07:46;30.77;;;15.75;;
25569;SDS011;17955;45.542;9.238;2022-12-18T03:10:16;32.08;;;17.73;;
25569;SDS011;17955;45.542;9.238;2022-12-18T03:12:46;29.73;;;16.75;;
25569;SDS011;17955;45.542;9.238;2022-12-18T03:15:16;31.23;;;16.85;;
25569;SDS011;17955;45.542;9.238;2022-12-18T03:17:54;30.20;;;17.65;;
25569;SDS011;17955;45.542;9.238;2022-12-18T03:20:25;28.70;;;16.85;;
25569;SDS011;17955;45.542;9.238;2022-12-18T03:22:55;34.40;;;18.05;;
25569;SDS011;17955;45.542;9.238;2022-12-18T03:25:24;33.80;;;17.80;;
25569;SDS011;17955;45.542;9.238;2022-12-18T03:27:54;36.67;;;18.15;;
25569;SDS011;17955;45.542;9.238;2022-12-18T03:30:24;42.20;;;19.63;;
25569;SDS011;17955;45.542;9.238;2022-12-18T03:32:55;47.88;;;20.77;;
25569;SDS011;17955;45.542;9.238;2022-12-18T03:35:24;52.88;;;24.33;;
25569;SDS011;17955;45.542;9.238;2022-12-18T03:37:53;59.78;;;25.35;;
25569;SDS011;17955;45.542;9.238;2022-12-18T03:40:23;74.82;;;29.75;;
25569;SDS011;17955;45.542;9.238;2022-12-18T03:42:55;74.22;;;29.40;;
25569;SDS011;17955;45.542;9.238;2022-12-18T03:45:29;82.80;;;29.83;;
25569;SDS011;17955;45.542;9.238;2022-12-18T03:48:01;76.15;;;27.52;;
25569;SDS011;17955;45.542;9.238;2022-12-18T03:50:37;76.13;;;28.92;;
25569;SDS011;17955;45.542;9.238;2022-12-18T03:53:08;69.22;;;27.58;;
25569;SDS011;17955;45.542;9.238;2022-12-18T03:55:37;62.80;;;26.02;;
25569;SDS011;17955;45.542;9.238;2022-12-18T03:58:06;71.22;;;27.80;;
25569;SDS011;17955;45.542;9.238;2022-12-18T04:00:47;73.03;;;28.70;;
25569;SDS011;17955;45.542;9.238;2022-12-18T04:03:15;80.18;;;28.10;;
25569;SDS011;17955;45.542;9.238;2022-12-18T04:05:46;68.95;;;27.55;;
25569;SDS011;17955;45.542;9.238;2022-12-18T04:08:17;72.05;;;27.25;;
25569;SDS011;17955;45.542;9.238;2022-12-18T04:10:52;64.18;;;25.95;;
25569;SDS011;17955;45.542;9.238;2022-12-18T04:13:23;61.35;;;25.85;;
25569;SDS011;17955;45.542;9.238;2022-12-18T04:15:52;69.97;;;27.50;;
25569;SDS011;17955;45.542;9.238;2022-12-18T04:18:20;73.00;;;25.27;;
25569;SDS011;17955;45.542;9.238;2022-12-18T04:20:48;66.30;;;25.67;;
25569;SDS011;17955;45.542;9.238;2022-12-18T04:23:16;74.63;;;27.83;;
25569;SDS011;17955;45.542;9.238;2022-12-18T04:25:44;69.05;;;27.83;;
25569;SDS011;17955;45.542;9.238;2022-12-18T04:28:16;71.53;;;25.67;;
25569;SDS011;17955;45.542;9.238;2022-12-18T04:30:44;80.25;;;28.25;;
25569;SDS011;17955;45.542;9.238;2022-12-18T04:33:17;78.43;;;29.05;;
25569;SDS011;17955;45.542;9.238;2022-12-18T04:35:45;69.05;;;26.20;;
25569;SDS011;17955;45.542;9.238;2022-12-18T04:38:12;57.33;;;23.95;;
25569;SDS011;17955;45.542;9.238;2022-12-18T04:40:40;65.80;;;24.27;;
25569;SDS011;17955;45.542;9.238;2022-12-18T04:43:15;61.07;;;25.17;;
25569;SDS011;17955;45.542;9.238;2022-12-18T04:45:42;58.15;;;24.70;;
25569;SDS011;17955;45.542;9.238;2022-12-18T04:48:10;61.92;;;24.70;;
25569;SDS011;17955;45.542;9.238;2022-12-18T04:50:38;55.90;;;22.63;;
25569;SDS011;17955;45.542;9.238;2022-12-18T04:53:05;66.13;;;25.92;;
25569;SDS011;17955;45.542;9.238;2022-12-18T04:55:33;65.75;;;26.50;;
25569;SDS011;17955;45.542;9.238;2022-12-18T04:58:00;60.15;;;23.27;;
25569;SDS011;17955;45.542;9.238;2022-12-18T05:00:27;74.22;;;27.45;;
25569;SDS011;17955;45.542;9.238;2022-12-18T05:02:54;69.40;;;26.25;;
25569;SDS011;17955;45.542;9.238;2022-12-18T05:05:22;66.25;;;27.85;;
25569;SDS011;17955;45.542;9.238;2022-12-18T05:07:50;64.90;;;24.73;;
25569;SDS011;17955;45.542;9.238;2022-12-18T05:10:18;70.07;;;25.80;;
25569;SDS011;17955;45.542;9.238;2022-12-18T05:12:45;73.45;;;27.48;;
25569;SDS011;17955;45.542;9.238;2022-12-18T05:15:26;68.93;;;25.20;;
25569;SDS011;17955;45.542;9.238;2022-12-18T05:17:53;66.93;;;24.00;;
25569;SDS011;17955;45.542;9.238;2022-12-18T05:20:21;67.43;;;25.77;;
25569;SDS011;17955;45.542;9.238;2022-12-18T05:22:48;71.03;;;24.08;;
25569;SDS011;17955;45.542;9.238;2022-12-18T05:25:17;64.18;;;23.85;;
25569;SDS011;17955;45.542;9.238;2022-12-18T05:27:44;67.85;;;26.38;;
25569;SDS011;17955;45.542;9.238;2022-12-18T05:30:12;70.88;;;26.40;;
25569;SDS011;17955;45.542;9.238;2022-12-18T05:32:39;66.63;;;25.58;;
25569;SDS011;17955;45.542;9.238;2022-12-18T05:35:07;73.47;;;25.98;;
25569;SDS011;17955;45.542;9.238;2022-12-18T05:37:35;69.55;;;26.70;;
25569;SDS011;17955;45.542;9.238;2022-12-18T05:40:02;62.05;;;24.10;;
25569;SDS011;17955;45.542;9.238;2022-12-18T05:42:31;80.30;;;29.88;;
25569;SDS011;17955;45.542;9.238;2022-12-18T05:44:58;63.60;;;25.52;;
25569;SDS011;17955;45.542;9.238;2022-12-18T05:47:26;67.93;;;25.27;;
25569;SDS011;17955;45.542;9.238;2022-12-18T05:49:54;70.22;;;27.83;;
25569;SDS011;17955;45.542;9.238;2022-12-18T05:52:21;60.85;;;24.55;;
25569;SDS011;17955;45.542;9.238;2022-12-18T05:54:48;59.65;;;23.25;;
25569;SDS011;17955;45.542;9.238;2022-12-18T05:57:16;55.63;;;24.42;;
25569;SDS011;17955;45.542;9.238;2022-12-18T05:59:45;66.45;;;25.05;;
25569;SDS011;17955;45.542;9.238;2022-12-18T06:02:12;66.07;;;25.30;;
25569;SDS011;17955;45.542;9.238;2022-12-18T06:04:39;59.90;;;24.48;;
25569;SDS011;17955;45.542;9.238;2022-12-18T06:07:06;57.22;;;25.73;;
25569;SDS011;17955;45.542;9.238;2022-12-18T06:09:33;62.25;;;24.75;;
25569;SDS011;17955;45.542;9.238;2022-12-18T06:12:03;62.55;;;25.80;;
25569;SDS011;17955;45.542;9.238;2022-12-18T06:14:31;57.58;;;24.45;;
25569;SDS011;17955;45.542;9.238;2022-12-18T06:16:59;63.22;;;24.25;;
25569;SDS011;17955;45.542;9.238;2022-12-18T06:19:27;64.07;;;27.98;;
25569;SDS011;17955;45.542;9.238;2022-12-18T06:21:54;59.53;;;25.58;;
25569;SDS011;17955;45.542;9.238;2022-12-18T06:24:24;66.95;;;26.52;;
25569;SDS011;17955;45.542;9.238;2022-12-18T06:26:51;63.08;;;25.85;;
25569;SDS011;17955;45.542;9.238;2022-12-18T06:29:18;66.78;;;27.40;;
25569;SDS011;17955;45.542;9.238;2022-12-18T06:31:45;68.68;;;26.88;;
25569;SDS011;17955;45.542;9.238;2022-12-18T06:34:14;62.83;;;26.83;;
25569;SDS011;17955;45.542;9.238;2022-12-18T06:36:41;59.78;;;24.58;;
25569;SDS011;17955;45.542;9.238;2022-12-18T06:39:08;69.38;;;27.55;;
25569;SDS011;17955;45.542;9.238;2022-12-18T06:41:36;53.65;;;23.80;;
25569;SDS011;17955;45.542;9.238;2022-12-18T06:44:03;61.47;;;24.80;;
25569;SDS011;17955;45.542;9.238;2022-12-18T06:46:31;66.10;;;27.35;;
25569;SDS011;17955;45.542;9.238;2022-12-18T06:48:58;58.08;;;24.05;;
25569;SDS011;17955;45.542;9.238;2022-12-18T06:51:26;59.38;;;24.08;;
25569;SDS011;17955;45.542;9.238;2022-12-18T06:53:54;68.22;;;25.08;;
25569;SDS011;17955;45.542;9.238;2022-12-18T06:56:21;67.50;;;25.48;;
25569;SDS011;17955;45.542;9.238;2022-12-18T06:58:51;62.83;;;26.55;;
25569;SDS011;17955;45.542;9.238;2022-12-18T07:01:19;61.22;;;25.92;;
25569;SDS011;17955;45.542;9.238;2022-12-18T07:03:51;65.35;;;25.38;;
25569;SDS011;17955;45.542;9.238;2022-12-18T07:06:19;57.38;;;24.45;;
25569;SDS011;17955;45.542;9.238;2022-12-18T07:08:48;59.75;;;26.63;;
25569;SDS011;17955;45.542;9.238;2022-12-18T07:11:16;63.30;;;25.55;;
25569;SDS011;17955;45.542;9.238;2022-12-18T07:13:43;66.72;;;26.08;;
25569;SDS011;17955;45.542;9.238;2022-12-18T07:16:12;69.63;;;25.70;;
25569;SDS011;17955;45.542;9.238;2022-12-18T07:18:40;59.35;;;24.38;;
25569;SDS011;17955;45.542;9.238;2022-12-18T07:21:08;57.33;;;24.00;;
25569;SDS011;17955;45.542;9.238;2022-12-18T07:23:35;70.68;;;28.00;;
25569;SDS011;17955;45.542;9.238;2022-12-18T07:26:04;67.45;;;27.00;;
25569;SDS011;17955;45.542;9.238;2022-12-18T07:28:32;58.83;;;26.08;;
25569;SDS011;17955;45.542;9.238;2022-12-18T07:31:02;68.75;;;27.27;;
25569;SDS011;17955;45.542;9.238;2022-12-18T07:33:29;64.97;;;26.40;;
25569;SDS011;17955;45.542;9.238;2022-12-18T07:35:58;69.05;;;26.60;;
25569;SDS011;17955;45.542;9.238;2022-12-18T07:38:25;66.97;;;25.13;;
25569;SDS011;17955;45.542;9.238;2022-12-18T07:40:52;73.03;;;28.23;;
25569;SDS011;17955;45.542;9.238;2022-12-18T07:43:21;65.78;;;26.88;;
25569;SDS011;17955;45.542;9.238;2022-12-18T07:45:49;67.70;;;26.40;;
25569;SDS011;17955;45.542;9.238;2022-12-18T07:48:16;59.95;;;25.88;;
25569;SDS011;17955;45.542;9.238;2022-12-18T07:50:44;72.47;;;25.67;;
25569;SDS011;17955;45.542;9.238;2022-12-18T07:53:11;65.32;;;25.23;;
25569;SDS011;17955;45.542;9.238;2022-12-18T07:55:39;59.33;;;23.67;;
25569;SDS011;17955;45.542;9.238;2022-12-18T07:58:07;60.58;;;24.95;;
25569;SDS011;17955;45.542;9.238;2022-12-18T08:00:36;72.55;;;27.75;;
25569;SDS011;17955;45.542;9.238;2022-12-18T08:03:03;68.20;;;26.38;;
25569;SDS011;17955;45.542;9.238;2022-12-18T08:05:30;61.53;;;25.80;;
25569;SDS011;17955;45.542;9.238;2022-12-18T08:07:58;65.47;;;26.88;;
25569;SDS011;17955;45.542;9.238;2022-12-18T08:10:25;69.60;;;26.48;;
25569;SDS011;17955;45.542;9.238;2022-12-18T08:12:52;68.50;;;27.05;;
25569;SDS011;17955;45.542;9.238;2022-12-18T08:15:20;73.40;;;29.38;;
25569;SDS011;17955;45.542;9.238;2022-12-18T08:17:48;74.10;;;29.13;;
25569;SDS011;17955;45.542;9.238;2022-12-18T08:20:15;78.70;;;28.77;;
25569;SDS011;17955;45.542;9.238;2022-12-18T08:22:43;76.15;;;28.20;;
25569;SDS011;17955;45.542;9.238;2022-12-18T08:25:10;78.30;;;30.23;;
25569;SDS011;17955;45.542;9.238;2022-12-18T08:27:37;69.68;;;28.50;;
25569;SDS011;17955;45.542;9.238;2022-12-18T08:30:05;60.78;;;27.20;;
25569;SDS011;17955;45.542;9.238;2022-12-18T08:32:34;63.15;;;26.63;;
25569;SDS011;17955;45.542;9.238;2022-12-18T08:35:03;66.32;;;27.58;;
25569;SDS011;17955;45.542;9.238;2022-12-18T08:37:30;69.50;;;26.77;;
25569;SDS011;17955;45.542;9.238;2022-12-18T08:39:58;75.93;;;30.42;;
25569;SDS011;17955;45.542;9.238;2022-12-18T08:42:25;58.58;;;26.42;;
25569;SDS011;17955;45.542;9.238;2022-12-18T08:45:10;54.95;;;23.48;;
25569;SDS011;17955;45.542;9.238;2022-12-18T08:47:38;58.25;;;25.50;;
25569;SDS011;17955;45.542;9.238;2022-12-18T08:50:07;64.53;;;26.40;;
25569;SDS011;17955;45.542;9.238;2022-12-18T08:52:34;54.55;;;25.35;;
25569;SDS011;17955;45.542;9.238;2022-12-18T08:55:01;69.60;;;27.52;;
25569;SDS011;17955;45.542;9.238;2022-12-18T08:57:29;54.58;;;25.33;;
25569;SDS011;17955;45.542;9.238;2022-12-18T08:59:56;53.53;;;26.15;;
25569;SDS011;17955;45.542;9.238;2022-12-18T09:02:23;48.28;;;21.70;;
25569;SDS011;17955;45.542;9.238;2022-12-18T09:04:51;51.53;;;23.13;;
25569;SDS011;17955;45.542;9.238;2022-12-18T09:07:19;53.28;;;23.25;;
25569;SDS011;17955;45.542;9.238;2022-12-18T09:09:47;50.03;;;23.88;;
25569;SDS011;17955;45.542;9.238;2022-12-18T09:12:14;56.28;;;24.65;;
25569;SDS011;17955;45.542;9.238;2022-12-18T09:14:41;53.80;;;24.52;;
25569;SDS011;17955;45.542;9.238;2022-12-18T09:17:09;47.63;;;22.42;;
25569;SDS011;17955;45.542;9.238;2022-12-18T09:19:36;53.90;;;21.17;;
25569;SDS011;17955;45.542;9.238;2022-12-18T09:22:03;54.05;;;24.02;;
25569;SDS011;17955;45.542;9.238;2022-12-18T09:24:32;45.33;;;21.25;;
25569;SDS011;17955;45.542;9.238;2022-12-18T09:27:00;48.97;;;22.80;;
25569;SDS011;17955;45.542;9.238;2022-12-18T09:29:27;50.47;;;23.27;;
25569;SDS011;17955;45.542;9.238;2022-12-18T09:31:55;46.05;;;23.40;;
25569;SDS011;17955;45.542;9.238;2022-12-18T09:34:22;45.92;;;22.58;;
25569;SDS011;17955;45.542;9.238;2022-12-18T09:36:50;46.92;;;22.40;;
25569;SDS011;17955;45.542;9.238;2022-12-18T09:39:17;48.00;;;22.70;;
25569;SDS011;17955;45.542;9.238;2022-12-18T09:41:48;44.95;;;23.23;;
25569;SDS011;17955;45.542;9.238;2022-12-18T09:44:20;53.42;;;25.85;;
25569;SDS011;17955;45.542;9.238;2022-12-18T09:46:51;45.13;;;23.60;;
25569;SDS011;17955;45.542;9.238;2022-12-18T09:49:20;44.65;;;23.33;;
25569;SDS011;17955;45.542;9.238;2022-12-18T09:51:50;47.60;;;23.95;;
25569;SDS011;17955;45.542;9.238;2022-12-18T09:54:21;45.95;;;22.42;;
25569;SDS011;17955;45.542;9.238;2022-12-18T09:56:50;47.58;;;23.45;;
25569;SDS011;17955;45.542;9.238;2022-12-18T09:59:20;45.42;;;22.17;;
25569;SDS011;17955;45.542;9.238;2022-12-18T10:01:48;52.35;;;23.73;;
25569;SDS011;17955;45.542;9.238;2022-12-18T10:04:15;49.13;;;22.55;;
25569;SDS011;17955;45.542;9.238;2022-12-18T10:06:43;49.38;;;24.08;;
25569;SDS011;17955;45.542;9.238;2022-12-18T10:09:14;45.50;;;22.50;;
25569;SDS011;17955;45.542;9.238;2022-12-18T10:11:47;55.30;;;21.83;;
25569;SDS011;17955;45.542;9.238;2022-12-18T10:14:19;46.42;;;21.88;;
25569;SDS011;17955;45.542;9.238;2022-12-18T10:16:52;48.97;;;23.33;;
25569;SDS011;17955;45.542;9.238;2022-12-18T10:19:29;53.45;;;23.58;;
25569;SDS011;17955;45.542;9.238;2022-12-18T10:22:01;43.42;;;22.40;;
25569;SDS011;17955;45.542;9.238;2022-12-18T10:24:32;34.38;;;19.00;;
25569;SDS011;17955;45.542;9.238;2022-12-18T10:27:09;44.90;;;20.23;;
25569;SDS011;17955;45.542;9.238;2022-12-18T10:32:08;39.17;;;18.42;;
25569;SDS011;17955;45.542;9.238;2022-12-18T10:34:49;39.88;;;20.00;;
25569;SDS011;17955;45.542;9.238;2022-12-18T10:37:17;33.15;;;16.45;;
25569;SDS011;17955;45.542;9.238;2022-12-18T10:39:45;30.60;;;15.93;;
25569;SDS011;17955;45.542;9.238;2022-12-18T10:42:16;36.85;;;18.45;;
25569;SDS011;17955;45.542;9.238;2022-12-18T10:44:46;30.67;;;16.00;;
25569;SDS011;17955;45.542;9.238;2022-12-18T10:47:29;29.00;;;15.63;;
25569;SDS011;17955;45.542;9.238;2022-12-18T10:49:57;29.40;;;15.50;;
25569;SDS011;17955;45.542;9.238;2022-12-18T10:52:25;28.58;;;15.65;;
25569;SDS011;17955;45.542;9.238;2022-12-18T10:54:53;30.58;;;16.73;;
25569;SDS011;17955;45.542;9.238;2022-12-18T10:57:31;29.27;;;16.80;;
25569;SDS011;17955;45.542;9.238;2022-12-18T11:00:21;30.35;;;16.38;;
25569;SDS011;17955;45.542;9.238;2022-12-18T11:02:47;28.15;;;15.60;;
25569;SDS011;17955;45.542;9.238;2022-12-18T11:05:23;40.13;;;19.45;;
25569;SDS011;17955;45.542;9.238;2022-12-18T11:07:53;36.55;;;18.17;;
25569;SDS011;17955;45.542;9.238;2022-12-18T11:10:21;42.30;;;21.13;;
25569;SDS011;17955;45.542;9.238;2022-12-18T11:12:49;35.67;;;19.38;;
25569;SDS011;17955;45.542;9.238;2022-12-18T11:15:16;36.22;;;18.77;;
25569;SDS011;17955;45.542;9.238;2022-12-18T11:17:48;35.72;;;19.15;;
25569;SDS011;17955;45.542;9.238;2022-12-18T11:20:20;34.75;;;19.08;;
25569;SDS011;17955;45.542;9.238;2022-12-18T11:22:54;39.30;;;21.38;;
25569;SDS011;17955;45.542;9.238;2022-12-18T11:25:22;42.60;;;20.88;;
25569;SDS011;17955;45.542;9.238;2022-12-18T11:27:52;39.00;;;19.02;;
25569;SDS011;17955;45.542;9.238;2022-12-18T11:30:24;46.58;;;22.02;;
25569;SDS011;17955;45.542;9.238;2022-12-18T11:32:53;47.38;;;22.08;;
25569;SDS011;17955;45.542;9.238;2022-12-18T11:35:23;46.90;;;23.88;;
25569;SDS011;17955;45.542;9.238;2022-12-18T11:37:53;48.58;;;22.08;;
25569;SDS011;17955;45.542;9.238;2022-12-18T11:40:25;44.78;;;21.65;;
25569;SDS011;17955;45.542;9.238;2022-12-18T11:42:54;44.95;;;22.70;;
25569;SDS011;17955;45.542;9.238;2022-12-18T11:45:25;44.38;;;22.20;;
25569;SDS011;17955;45.542;9.238;2022-12-18T11:47:56;41.88;;;21.65;;
25569;SDS011;17955;45.542;9.238;2022-12-18T11:50:24;42.03;;;22.52;;
25569;SDS011;17955;45.542;9.238;2022-12-18T11:52:52;45.53;;;23.35;;
25569;SDS011;17955;45.542;9.238;2022-12-18T11:55:22;41.60;;;20.15;;
25569;SDS011;17955;45.542;9.238;2022-12-18T11:57:52;39.42;;;20.35;;
25569;SDS011;17955;45.542;9.238;2022-12-18T12:00:22;38.38;;;19.83;;
25569;SDS011;17955;45.542;9.238;2022-12-18T12:05:41;33.22;;;17.77;;
25569;SDS011;17955;45.542;9.238;2022-12-18T12:08:13;39.65;;;20.58;;
25569;SDS011;17955;45.542;9.238;2022-12-18T12:10:45;43.80;;;21.52;;
25569;SDS011;17955;45.542;9.238;2022-12-18T12:13:18;37.47;;;20.17;;
25569;SDS011;17955;45.542;9.238;2022-12-18T12:15:50;35.35;;;19.42;;
25569;SDS011;17955;45.542;9.238;2022-12-18T12:18:24;37.15;;;19.67;;
25569;SDS011;17955;45.542;9.238;2022-12-18T12:20:58;41.85;;;20.92;;
25569;SDS011;17955;45.542;9.238;2022-12-18T12:23:31;40.42;;;20.73;;
25569;SDS011;17955;45.542;9.238;2022-12-18T12:26:02;34.08;;;18.88;;
25569;SDS011;17955;45.542;9.238;2022-12-18T12:28:37;37.63;;;18.98;;
25569;SDS011;17955;45.542;9.238;2022-12-18T12:31:11;37.00;;;20.98;;
25569;SDS011;17955;45.542;9.238;2022-12-18T12:33:41;34.13;;;19.20;;
25569;SDS011;17955;45.542;9.238;2022-12-18T12:36:13;35.95;;;19.52;;
25569;SDS011;17955;45.542;9.238;2022-12-18T12:38:42;36.08;;;18.08;;
25569;SDS011;17955;45.542;9.238;2022-12-18T12:41:12;38.95;;;19.02;;
25569;SDS011;17955;45.542;9.238;2022-12-18T12:43:53;34.72;;;18.17;;
25569;SDS011;17955;45.542;9.238;2022-12-18T12:46:22;30.17;;;18.15;;
25569;SDS011;17955;45.542;9.238;2022-12-18T12:48:51;39.00;;;19.30;;
25569;SDS011;17955;45.542;9.238;2022-12-18T12:51:21;32.65;;;18.80;;
25569;SDS011;17955;45.542;9.238;2022-12-18T12:53:54;32.67;;;18.40;;
25569;SDS011;17955;45.542;9.238;2022-12-18T12:56:22;31.65;;;18.10;;
25569;SDS011;17955;45.542;9.238;2022-12-18T12:58:54;38.80;;;18.45;;
25569;SDS011;17955;45.542;9.238;2022-12-18T13:01:25;29.73;;;18.10;;
25569;SDS011;17955;45.542;9.238;2022-12-18T13:03:55;37.00;;;17.58;;
25569;SDS011;17955;45.542;9.238;2022-12-18T13:06:27;30.48;;;17.02;;
25569;SDS011;17955;45.542;9.238;2022-12-18T13:08:57;30.50;;;18.75;;
25569;SDS011;17955;45.542;9.238;2022-12-18T13:11:28;32.53;;;17.75;;
25569;SDS011;17955;45.542;9.238;2022-12-18T13:14:19;32.08;;;17.65;;
25569;SDS011;17955;45.542;9.238;2022-12-18T13:16:47;33.38;;;18.80;;
25569;SDS011;17955;45.542;9.238;2022-12-18T13:19:23;29.92;;;17.13;;
25569;SDS011;17955;45.542;9.238;2022-12-18T13:21:56;39.25;;;19.48;;
25569;SDS011;17955;45.542;9.238;2022-12-18T13:24:26;31.83;;;18.55;;
25569;SDS011;17955;45.542;9.238;2022-12-18T13:26:54;32.40;;;17.92;;
25569;SDS011;17955;45.542;9.238;2022-12-18T13:29:44;30.88;;;18.33;;
25569;SDS011;17955;45.542;9.238;2022-12-18T13:37:52;38.35;;;20.17;;
25569;SDS011;17955;45.542;9.238;2022-12-18T13:43:21;39.85;;;20.58;;
25569;SDS011;17955;45.542;9.238;2022-12-18T13:45:58;37.63;;;21.00;;
25569;SDS011;17955;45.542;9.238;2022-12-18T13:48:27;41.53;;;20.80;;
25569;SDS011;17955;45.542;9.238;2022-12-18T13:50:56;36.22;;;20.52;;
25569;SDS011;17955;45.542;9.238;2022-12-18T13:53:26;37.30;;;19.75;;
25569;SDS011;17955;45.542;9.238;2022-12-18T13:55:54;39.55;;;21.00;;
25569;SDS011;17955;45.542;9.238;2022-12-18T13:58:21;41.85;;;20.15;;
25569;SDS011;17955;45.542;9.238;2022-12-18T14:00:48;41.03;;;21.23;;
25569;SDS011;17955;45.542;9.238;2022-12-18T14:03:17;41.75;;;22.45;;
25569;SDS011;17955;45.542;9.238;2022-12-18T14:05:45;41.45;;;23.20;;
25569;SDS011;17955;45.542;9.238;2022-12-18T14:08:15;41.30;;;23.90;;
25569;SDS011;17955;45.542;9.238;2022-12-18T14:10:45;45.58;;;23.92;;
25569;SDS011;17955;45.542;9.238;2022-12-18T14:13:23;40.13;;;21.65;;
25569;SDS011;17955;45.542;9.238;2022-12-18T14:15:51;41.75;;;21.95;;
25569;SDS011;17955;45.542;9.238;2022-12-18T14:18:20;38.33;;;19.60;;
25569;SDS011;17955;45.542;9.238;2022-12-18T14:20:48;43.88;;;23.27;;
25569;SDS011;17955;45.542;9.238;2022-12-18T14:23:25;40.55;;;21.00;;
25569;SDS011;17955;45.542;9.238;2022-12-18T14:25:54;38.22;;;22.35;;
25569;SDS011;17955;45.542;9.238;2022-12-18T14:28:24;30.70;;;17.05;;
25569;SDS011;17955;45.542;9.238;2022-12-18T14:30:52;40.55;;;21.95;;
25569;SDS011;17955;45.542;9.238;2022-12-18T14:33:22;42.83;;;22.33;;
25569;SDS011;17955;45.542;9.238;2022-12-18T14:35:54;38.22;;;21.42;;
25569;SDS011;17955;45.542;9.238;2022-12-18T14:38:25;39.05;;;21.08;;
25569;SDS011;17955;45.542;9.238;2022-12-18T14:41:00;37.88;;;20.30;;
25569;SDS011;17955;45.542;9.238;2022-12-18T14:43:45;42.42;;;21.13;;
25569;SDS011;17955;45.542;9.238;2022-12-18T14:46:28;43.72;;;21.65;;
25569;SDS011;17955;45.542;9.238;2022-12-18T14:48:57;41.40;;;21.02;;